Time;durP1;ratioP1;P1;durP2;ratioP2;P2;SDS_P1;SDS_P2;PMS_P1;PMS_P2;Temp;Humidity;BMP_temperature;BMP_pressure;BME280_temperature;BME280_humidity;BME280_pressure;Samples;Min_cycle;Max_cycle;Signal;HPM_P1;HPM_P2
2021/12/05 00:17:05;;;;;;;17.25;8.85;;;;;;;;;;5048406;28;20074;-54
2021/12/05 00:17:39;;;;;;;21.80;9.65;;;;;;;;;;5052150;28;20098;-53
2021/12/05 00:22:47;;;;;;;19.00;8.35;;;;;;;;;;5050273;28;20039;-54
2021/12/05 00:25:15;;;;;;;19.63;9.02;;;;;;;;;;5045624;28;20025;-54
2021/12/05 00:27:46;;;;;;;16.77;9.15;;;;;;;;;;5045155;28;20033;-56
2021/12/05 00:36:08;;;;;;;14.23;8.23;;;;;;;;;;5052297;28;20442;-53
2021/12/05 00:41:36;;;;;;;18.38;8.90;;;;;;;;;;5051724;28;20040;-55
2021/12/05 00:52:36;;;;;;;19.75;9.27;;;;;;;;;;5054150;28;20090;-56
2021/12/05 01:00:49;;;;;;;18.33;9.38;;;;;;;;;;5045751;28;20099;-56
2021/12/05 01:03:32;;;;;;;19.10;9.75;;;;;;;;;;5049118;28;20044;-55
2021/12/05 01:11:42;;;;;;;17.52;9.07;;;;;;;;;;5051835;28;20079;-55
2021/12/05 01:16:40;;;;;;;19.13;8.52;;;;;;;;;;5048393;28;20106;-56
2021/12/05 01:19:07;;;;;;;20.35;9.50;;;;;;;;;;5049602;28;20040;-56
2021/12/05 01:21:35;;;;;;;18.02;8.57;;;;;;;;;;5038576;28;20044;-56
2021/12/05 01:24:09;;;;;;;17.55;9.70;;;;;;;;;;5050849;28;20025;-56
2021/12/05 01:27:02;;;;;;;14.60;8.15;;;;;;;;;;5055197;28;20112;-56
2021/12/05 01:29:38;;;;;;;19.50;8.80;;;;;;;;;;5050522;28;20051;-56
2021/12/05 01:32:35;;;;;;;19.05;9.50;;;;;;;;;;5045747;28;20031;-55
2021/12/05 01:35:36;;;;;;;17.35;9.00;;;;;;;;;;5050994;28;20037;-56
2021/12/05 01:38:12;;;;;;;18.67;8.98;;;;;;;;;;5048846;28;20151;-54
2021/12/05 01:56:49;;;;;;;21.40;9.90;;;;;;;;;;5051950;28;20072;-56
2021/12/05 02:34:41;;;;;;;18.95;9.02;;;;;;;;;;5056607;28;20039;-57
2021/12/05 02:45:25;;;;;;;18.83;9.38;;;;;;;;;;5053553;28;20699;-57
2021/12/05 02:47:53;;;;;;;17.42;8.63;;;;;;;;;;5058493;28;20025;-57
2021/12/05 02:50:20;;;;;;;19.48;9.52;;;;;;;;;;5055565;28;20033;-55
2021/12/05 02:52:46;;;;;;;16.42;9.35;;;;;;;;;;5056206;28;20622;-55
2021/12/05 02:55:24;;;;;;;16.25;9.10;;;;;;;;;;5051767;28;20163;-52
2021/12/05 02:57:54;;;;;;;16.27;8.40;;;;;;;;;;5055036;28;20021;-57
2021/12/05 03:00:35;;;;;;;17.25;9.00;;;;;;;;;;5051606;28;20071;-55
2021/12/05 03:03:02;;;;;;;16.88;8.57;;;;;;;;;;5046035;28;20108;-54
2021/12/05 03:05:29;;;;;;;19.73;9.32;;;;;;;;;;5043707;28;20029;-57
2021/12/05 03:08:00;;;;;;;15.82;9.05;;;;;;;;;;5049397;28;20021;-56
2021/12/05 03:10:27;;;;;;;18.98;9.65;;;;;;;;;;5050947;28;20040;-55
2021/12/05 03:12:53;;;;;;;20.02;9.15;;;;;;;;;;5050082;28;20358;-52
2021/12/05 03:15:19;;;;;;;18.23;9.15;;;;;;;;;;5050151;28;20099;-52
2021/12/05 03:17:46;;;;;;;18.90;9.07;;;;;;;;;;5044821;28;20033;-56
2021/12/05 03:20:13;;;;;;;21.90;9.73;;;;;;;;;;5052759;28;20056;-53
2021/12/05 03:22:39;;;;;;;20.17;9.85;;;;;;;;;;5052900;28;20017;-58
2021/12/05 03:25:05;;;;;;;19.38;9.68;;;;;;;;;;5050895;28;20440;-58
2021/12/05 03:27:32;;;;;;;17.02;8.90;;;;;;;;;;5051036;28;20025;-57
2021/12/05 03:29:58;;;;;;;16.17;8.88;;;;;;;;;;5044666;28;20035;-58
2021/12/05 03:32:24;;;;;;;15.38;8.38;;;;;;;;;;5053251;28;20513;-58
2021/12/05 03:34:51;;;;;;;19.67;9.23;;;;;;;;;;5047479;28;20120;-57
2021/12/05 03:37:17;;;;;;;18.45;8.80;;;;;;;;;;5052771;28;20053;-57
2021/12/05 03:39:43;;;;;;;18.48;9.95;;;;;;;;;;5054196;28;20167;-55
2021/12/05 03:42:09;;;;;;;17.02;9.43;;;;;;;;;;5051268;28;20029;-57
2021/12/05 03:44:36;;;;;;;16.65;8.98;;;;;;;;;;5042790;28;20069;-58
2021/12/05 03:47:05;;;;;;;17.25;8.68;;;;;;;;;;5051088;28;20035;-53
2021/12/05 03:49:32;;;;;;;18.52;8.98;;;;;;;;;;5046864;28;20018;-57
2021/12/05 03:52:00;;;;;;;19.88;9.32;;;;;;;;;;5048046;28;20035;-57
2021/12/05 03:54:26;;;;;;;17.20;8.95;;;;;;;;;;5049763;28;20031;-58
2021/12/05 03:56:52;;;;;;;16.58;9.35;;;;;;;;;;5050472;28;20111;-57
2021/12/05 03:59:19;;;;;;;22.30;9.60;;;;;;;;;;5044802;28;20070;-57
2021/12/05 04:01:46;;;;;;;18.08;9.13;;;;;;;;;;5044846;28;20031;-57
2021/12/05 04:04:12;;;;;;;18.00;9.15;;;;;;;;;;5052496;28;20369;-58
2021/12/05 04:06:39;;;;;;;18.45;9.30;;;;;;;;;;5049954;28;20021;-57
2021/12/05 04:09:07;;;;;;;18.70;9.65;;;;;;;;;;5048498;28;20112;-55
2021/12/05 04:11:36;;;;;;;19.17;10.25;;;;;;;;;;5056186;28;20029;-57
2021/12/05 04:14:06;;;;;;;23.58;10.73;;;;;;;;;;5048342;28;20040;-57
2021/12/05 04:16:33;;;;;;;23.63;10.55;;;;;;;;;;5049476;28;20187;-57
2021/12/05 04:18:59;;;;;;;21.27;10.45;;;;;;;;;;5049883;28;20117;-57
2021/12/05 04:21:26;;;;;;;23.33;11.70;;;;;;;;;;5049055;28;20029;-58
2021/12/05 04:23:52;;;;;;;23.50;10.52;;;;;;;;;;5049646;28;20032;-56
2021/12/05 04:26:19;;;;;;;21.55;10.93;;;;;;;;;;5044761;28;20067;-52
2021/12/05 04:28:46;;;;;;;21.20;10.25;;;;;;;;;;5053284;28;20078;-54
2021/12/05 04:31:12;;;;;;;19.13;10.48;;;;;;;;;;5052961;28;20029;-55
2021/12/05 04:33:39;;;;;;;19.83;9.98;;;;;;;;;;5051425;28;20119;-54
2021/12/05 04:36:06;;;;;;;20.08;9.95;;;;;;;;;;5050915;28;20048;-54
2021/12/05 04:38:32;;;;;;;23.38;9.52;;;;;;;;;;5050412;28;20131;-55
2021/12/05 04:40:58;;;;;;;23.23;11.60;;;;;;;;;;5047493;28;20103;-56
2021/12/05 04:43:24;;;;;;;21.63;9.45;;;;;;;;;;5045837;28;20395;-57
2021/12/05 04:45:50;;;;;;;22.80;10.90;;;;;;;;;;5051175;28;20028;-57
2021/12/05 04:48:16;;;;;;;21.95;9.93;;;;;;;;;;5049731;28;20540;-56
2021/12/05 04:50:44;;;;;;;21.73;10.05;;;;;;;;;;5041377;28;20028;-56
2021/12/05 04:53:10;;;;;;;21.80;9.82;;;;;;;;;;5048629;28;20107;-57
2021/12/05 04:55:37;;;;;;;23.77;11.73;;;;;;;;;;5049935;28;20036;-56
2021/12/05 04:58:05;;;;;;;19.20;9.43;;;;;;;;;;5050916;28;20465;-57
2021/12/05 05:00:34;;;;;;;22.95;9.82;;;;;;;;;;5047129;28;20017;-56
2021/12/05 05:03:00;;;;;;;18.02;9.20;;;;;;;;;;5050401;28;20032;-57
2021/12/05 05:05:28;;;;;;;24.77;11.10;;;;;;;;;;5045971;28;20092;-56
2021/12/05 05:07:54;;;;;;;24.02;10.68;;;;;;;;;;5050301;28;20025;-56
2021/12/05 05:10:22;;;;;;;21.20;10.27;;;;;;;;;;5046389;28;20037;-57
2021/12/05 05:12:48;;;;;;;16.70;9.35;;;;;;;;;;5052313;28;20104;-56
2021/12/05 05:15:19;;;;;;;19.30;10.15;;;;;;;;;;5051121;28;20156;-57
2021/12/05 05:17:46;;;;;;;19.73;9.40;;;;;;;;;;5051010;28;20033;-57
2021/12/05 05:20:22;;;;;;;19.75;9.68;;;;;;;;;;5051842;28;20029;-57
2021/12/05 05:23:09;;;;;;;20.33;10.02;;;;;;;;;;5051671;28;20086;-57
2021/12/05 05:28:48;;;;;;;20.70;10.35;;;;;;;;;;5041260;28;20535;-57
2021/12/05 05:39:40;;;;;;;20.75;9.85;;;;;;;;;;5052723;28;20044;-55
2021/12/05 05:49:58;;;;;;;24.10;10.85;;;;;;;;;;5046783;28;20393;-55
2021/12/05 05:52:25;;;;;;;20.67;10.60;;;;;;;;;;5048089;28;20026;-56
2021/12/05 05:54:52;;;;;;;19.95;9.65;;;;;;;;;;5053475;28;20053;-54
2021/12/05 05:57:24;;;;;;;26.10;10.18;;;;;;;;;;5049044;28;20453;-54
2021/12/05 06:00:13;;;;;;;22.67;10.85;;;;;;;;;;5050305;28;20040;-55
2021/12/05 06:05:24;;;;;;;30.60;11.80;;;;;;;;;;5044285;28;20051;-55
2021/12/05 06:07:50;;;;;;;21.83;10.20;;;;;;;;;;5051127;28;20026;-53
2021/12/05 06:10:17;;;;;;;26.35;11.02;;;;;;;;;;5054190;28;20025;-51
2021/12/05 06:12:44;;;;;;;26.55;11.65;;;;;;;;;;5052333;28;20044;-57
2021/12/05 06:15:12;;;;;;;24.48;11.15;;;;;;;;;;5048750;28;20429;-54
2021/12/05 06:17:38;;;;;;;24.75;11.18;;;;;;;;;;5051710;28;20091;-56
2021/12/05 06:20:26;;;;;;;24.83;10.60;;;;;;;;;;5041763;28;20880;-54
2021/12/05 06:22:52;;;;;;;19.75;9.65;;;;;;;;;;5050915;28;20477;-55
2021/12/05 06:25:22;;;;;;;21.10;10.30;;;;;;;;;;5046283;28;20105;-57
2021/12/05 06:27:49;;;;;;;21.33;10.65;;;;;;;;;;5053657;28;20025;-56
2021/12/05 06:30:32;;;;;;;24.90;10.98;;;;;;;;;;5049123;28;20048;-56
2021/12/05 06:38:42;;;;;;;23.35;11.90;;;;;;;;;;5049014;28;20039;-56
2021/12/05 06:41:19;;;;;;;27.35;11.27;;;;;;;;;;5052781;28;20155;-56
2021/12/05 06:46:31;;;;;;;30.30;11.20;;;;;;;;;;5051709;28;20084;-57
2021/12/05 06:48:57;;;;;;;24.83;10.90;;;;;;;;;;5046983;28;20477;-57
2021/12/05 06:51:26;;;;;;;27.88;11.85;;;;;;;;;;5052662;28;20040;-57
2021/12/05 06:53:52;;;;;;;30.58;10.88;;;;;;;;;;5042555;28;20026;-57
2021/12/05 06:56:18;;;;;;;27.15;11.43;;;;;;;;;;5053773;28;20044;-54
2021/12/05 06:58:45;;;;;;;23.10;11.00;;;;;;;;;;5051763;28;20048;-57
2021/12/05 07:01:11;;;;;;;24.85;11.63;;;;;;;;;;5046664;28;20032;-57
2021/12/05 07:03:40;;;;;;;31.25;11.77;;;;;;;;;;5044839;28;20021;-56
2021/12/05 07:06:10;;;;;;;30.55;11.43;;;;;;;;;;5053432;28;20040;-54
2021/12/05 07:08:39;;;;;;;24.58;10.65;;;;;;;;;;5049941;28;20724;-56
2021/12/05 07:19:37;;;;;;;31.20;12.23;;;;;;;;;;5067525;28;20040;-53
2021/12/05 07:22:16;;;;;;;39.03;12.15;;;;;;;;;;5050086;28;20037;-55
2021/12/05 07:24:53;;;;;;;29.30;11.70;;;;;;;;;;5045977;28;20025;-56
2021/12/05 07:41:02;;;;;;;30.38;12.48;;;;;;;;;;5051433;28;20060;-57
2021/12/05 07:43:28;;;;;;;33.75;13.35;;;;;;;;;;5043410;28;20029;-55
2021/12/05 07:45:58;;;;;;;34.10;13.43;;;;;;;;;;5041361;28;20036;-57
2021/12/05 07:48:29;;;;;;;38.92;14.45;;;;;;;;;;5045080;28;20701;-56
2021/12/05 07:51:09;;;;;;;32.90;13.23;;;;;;;;;;5047452;28;20473;-55
2021/12/05 07:53:57;;;;;;;39.38;14.75;;;;;;;;;;5050976;28;20029;-57
2021/12/05 07:56:37;;;;;;;36.80;16.25;;;;;;;;;;5057000;28;20358;-55
2021/12/05 08:15:25;;;;;;;40.50;13.90;;;;;;;;;;5049365;28;20091;-54
2021/12/05 08:17:57;;;;;;;31.60;12.00;;;;;;;;;;5050193;28;20029;-55
2021/12/05 08:20:33;;;;;;;32.40;13.27;;;;;;;;;;5047507;28;20029;-57
2021/12/05 08:23:00;;;;;;;32.42;12.07;;;;;;;;;;5048719;28;20025;-56
2021/12/05 08:25:29;;;;;;;40.47;16.00;;;;;;;;;;5047142;28;20067;-56
2021/12/05 08:28:04;;;;;;;38.15;15.07;;;;;;;;;;5046669;28;20579;-57
2021/12/05 08:30:35;;;;;;;40.22;14.90;;;;;;;;;;5043867;28;20052;-56
2021/12/05 08:36:01;;;;;;;46.20;17.35;;;;;;;;;;5050436;28;20105;-56
2021/12/05 08:39:14;;;;;;;45.83;16.92;;;;;;;;;;5047329;28;20066;-55
2021/12/05 09:24:48;;;;;;;43.92;18.75;;;;;;;;;;5049530;28;20048;-56
2021/12/05 09:38:37;;;;;;;53.88;19.85;;;;;;;;;;5050813;28;20066;-57
2021/12/05 09:39:10;;;;;;;44.13;19.00;;;;;;;;;;5044662;28;20436;-55
2021/12/05 09:53:26;;;;;;;54.90;20.05;;;;;;;;;;5039944;28;20179;-55
2021/12/05 10:09:32;;;;;;;57.33;20.20;;;;;;;;;;5048902;28;20044;-57
2021/12/05 10:14:44;;;;;;;59.72;21.63;;;;;;;;;;5056228;28;20120;-56
2021/12/05 10:20:20;;;;;;;54.90;20.17;;;;;;;;;;5052278;28;20044;-57
2021/12/05 10:36:18;;;;;;;56.75;21.98;;;;;;;;;;5045065;28;20128;-57
2021/12/05 10:38:51;;;;;;;59.28;19.80;;;;;;;;;;5050306;28;20032;-57
2021/12/05 10:43:57;;;;;;;55.33;19.02;;;;;;;;;;5051612;28;20053;-56
2021/12/05 10:46:25;;;;;;;54.63;18.55;;;;;;;;;;5047171;28;20036;-56
2021/12/05 10:48:53;;;;;;;53.38;19.10;;;;;;;;;;5052904;28;20036;-57
2021/12/05 10:51:21;;;;;;;51.35;18.25;;;;;;;;;;5050047;28;20083;-56
2021/12/05 10:53:50;;;;;;;49.33;18.13;;;;;;;;;;5049831;28;20435;-54
2021/12/05 10:56:18;;;;;;;51.35;20.23;;;;;;;;;;5038134;28;20033;-56
2021/12/05 10:58:49;;;;;;;48.38;18.20;;;;;;;;;;5046494;28;21926;-57
2021/12/05 11:01:23;;;;;;;52.25;18.05;;;;;;;;;;5046928;28;20385;-57
2021/12/05 11:03:52;;;;;;;51.08;19.95;;;;;;;;;;5043928;28;20049;-54
2021/12/05 11:06:24;;;;;;;41.45;17.70;;;;;;;;;;5044986;28;20029;-56
2021/12/05 11:08:58;;;;;;;45.28;18.08;;;;;;;;;;5048411;28;20040;-57
2021/12/05 11:11:24;;;;;;;48.42;17.73;;;;;;;;;;5049116;28;20033;-57
2021/12/05 11:13:50;;;;;;;51.00;18.20;;;;;;;;;;5051482;28;20036;-51
2021/12/05 11:16:36;;;;;;;53.25;18.88;;;;;;;;;;5047778;28;20052;-56
2021/12/05 11:19:08;;;;;;;52.63;18.45;;;;;;;;;;5049512;28;20041;-57
2021/12/05 11:21:35;;;;;;;56.85;20.00;;;;;;;;;;5050167;28;20017;-56
2021/12/05 11:24:12;;;;;;;46.03;17.35;;;;;;;;;;5045308;28;20031;-56
2021/12/05 11:26:40;;;;;;;52.90;17.70;;;;;;;;;;5043083;28;20108;-55
2021/12/05 11:29:07;;;;;;;55.50;19.52;;;;;;;;;;5048016;28;20048;-54
2021/12/05 11:31:33;;;;;;;59.80;20.38;;;;;;;;;;5050633;28;20028;-57
2021/12/05 11:33:59;;;;;;;53.60;19.77;;;;;;;;;;5051404;28;20056;-54
2021/12/05 11:36:30;;;;;;;49.20;18.15;;;;;;;;;;5051539;28;20516;-54
2021/12/05 11:38:56;;;;;;;51.45;17.45;;;;;;;;;;5041759;28;20090;-55
2021/12/05 11:41:23;;;;;;;47.13;18.75;;;;;;;;;;5051947;28;20029;-57
2021/12/05 11:43:54;;;;;;;54.10;18.17;;;;;;;;;;5052158;28;20074;-56
2021/12/05 11:46:23;;;;;;;50.38;18.85;;;;;;;;;;5050636;28;20036;-57
2021/12/05 11:48:53;;;;;;;52.35;19.77;;;;;;;;;;5050179;28;20029;-53
2021/12/05 11:51:24;;;;;;;56.17;19.88;;;;;;;;;;5048115;28;20086;-56
2021/12/05 11:53:52;;;;;;;55.95;19.73;;;;;;;;;;5050221;28;20033;-56
2021/12/05 11:56:21;;;;;;;52.30;17.85;;;;;;;;;;5049551;28;20455;-54
2021/12/05 11:59:02;;;;;;;53.28;19.85;;;;;;;;;;5049608;28;20179;-57
2021/12/05 12:01:34;;;;;;;57.28;20.90;;;;;;;;;;5054140;28;20376;-57
2021/12/05 12:04:00;;;;;;;65.75;21.10;;;;;;;;;;5049724;28;20021;-57
2021/12/05 12:06:26;;;;;;;51.28;21.17;;;;;;;;;;5052118;28;20487;-57
2021/12/05 12:08:54;;;;;;;48.15;19.15;;;;;;;;;;5050096;28;20124;-56
2021/12/05 12:11:20;;;;;;;53.60;19.60;;;;;;;;;;5051299;28;20479;-55
2021/12/05 12:13:47;;;;;;;51.22;20.67;;;;;;;;;;5051657;28;20033;-54
2021/12/05 12:16:14;;;;;;;53.58;19.75;;;;;;;;;;5049252;28;20039;-57
2021/12/05 12:18:43;;;;;;;47.85;18.35;;;;;;;;;;5051897;28;20099;-56
2021/12/05 12:21:12;;;;;;;45.08;18.60;;;;;;;;;;5052472;28;20033;-57
2021/12/05 12:23:38;;;;;;;51.53;17.08;;;;;;;;;;5051035;28;20037;-57
2021/12/05 12:26:05;;;;;;;50.47;19.63;;;;;;;;;;5046209;28;20032;-57
2021/12/05 12:28:32;;;;;;;47.00;18.98;;;;;;;;;;5040872;28;20032;-57
2021/12/05 12:31:00;;;;;;;51.17;19.92;;;;;;;;;;5048546;28;20034;-55
2021/12/05 12:33:28;;;;;;;52.10;20.38;;;;;;;;;;5045742;28;20064;-53
2021/12/05 12:35:55;;;;;;;53.80;18.90;;;;;;;;;;5050759;28;20144;-57
2021/12/05 12:38:45;;;;;;;53.20;23.75;;;;;;;;;;5050496;28;20032;-57
2021/12/05 12:41:13;;;;;;;52.95;19.70;;;;;;;;;;5048932;28;20393;-56
2021/12/05 12:43:39;;;;;;;52.55;19.42;;;;;;;;;;5050869;28;20021;-57
2021/12/05 12:46:16;;;;;;;58.72;21.00;;;;;;;;;;5047425;28;20070;-56
2021/12/05 12:48:42;;;;;;;55.42;19.33;;;;;;;;;;5048807;28;20040;-57
2021/12/05 12:51:08;;;;;;;58.05;19.45;;;;;;;;;;5053375;28;20024;-57
2021/12/05 12:53:37;;;;;;;51.40;19.58;;;;;;;;;;5044327;28;20033;-56
2021/12/05 12:56:18;;;;;;;49.28;19.02;;;;;;;;;;5050718;28;20053;-57
2021/12/05 12:58:48;;;;;;;46.88;17.35;;;;;;;;;;5050422;28;20036;-55
2021/12/05 13:01:30;;;;;;;42.60;18.67;;;;;;;;;;5048851;28;20442;-55
2021/12/05 13:04:27;;;;;;;42.65;17.95;;;;;;;;;;5051313;28;20040;-54
2021/12/05 13:12:32;;;;;;;47.38;18.58;;;;;;;;;;5049316;28;20036;-54
2021/12/05 13:14:58;;;;;;;;;;;;;;;;;;5049144;28;20478;-56
2021/12/05 13:17:43;;;;;;;42.60;17.05;;;;;;;;;;5050283;28;20027;-55
2021/12/05 13:20:10;;;;;;;37.75;16.50;;;;;;;;;;5048917;28;20041;-57
2021/12/05 13:22:54;;;;;;;40.60;17.15;;;;;;;;;;5050321;28;20029;-57
2021/12/05 13:25:20;;;;;;;40.35;17.08;;;;;;;;;;5049027;28;21257;-56
2021/12/05 13:27:47;;;;;;;48.70;18.55;;;;;;;;;;5043518;28;20036;-57
2021/12/05 13:30:27;;;;;;;41.65;17.17;;;;;;;;;;5047984;28;20110;-57
2021/12/05 13:33:13;;;;;;;48.33;16.58;;;;;;;;;;5041625;28;20041;-56
2021/12/05 13:35:40;;;;;;;42.30;19.48;;;;;;;;;;5052239;28;20384;-55
2021/12/05 13:38:06;;;;;;;45.13;18.33;;;;;;;;;;5050090;28;20029;-57
2021/12/05 13:40:33;;;;;;;41.78;18.05;;;;;;;;;;5054743;28;20039;-55
2021/12/05 13:43:05;;;;;;;49.08;18.48;;;;;;;;;;5050232;28;20928;-54
2021/12/05 13:45:35;;;;;;;46.85;18.38;;;;;;;;;;5047335;28;20079;-55
2021/12/05 13:48:01;;;;;;;44.10;18.40;;;;;;;;;;5050573;28;20030;-57
2021/12/05 13:50:32;;;;;;;49.38;18.90;;;;;;;;;;5055106;28;20039;-54
2021/12/05 13:53:00;;;;;;;43.17;19.25;;;;;;;;;;5049045;28;20032;-55
2021/12/05 13:55:46;;;;;;;39.10;17.83;;;;;;;;;;5049629;28;20037;-54
2021/12/05 13:58:21;;;;;;;45.47;18.85;;;;;;;;;;5048576;28;20432;-54
2021/12/05 14:00:52;;;;;;;51.30;18.23;;;;;;;;;;5057123;28;20025;-56
2021/12/05 14:03:36;;;;;;;50.50;19.35;;;;;;;;;;5051642;28;20021;-56
2021/12/05 14:06:02;;;;;;;43.95;18.60;;;;;;;;;;5049669;28;20029;-53
2021/12/05 14:08:29;;;;;;;43.22;18.27;;;;;;;;;;5054402;28;20356;-55
2021/12/05 14:10:55;;;;;;;45.42;19.40;;;;;;;;;;5050053;28;20130;-56
2021/12/05 14:13:22;;;;;;;46.72;19.73;;;;;;;;;;5050863;28;20028;-57
2021/12/05 14:15:56;;;;;;;47.15;19.67;;;;;;;;;;5051644;28;20025;-53
2021/12/05 14:18:22;;;;;;;44.75;20.13;;;;;;;;;;5048423;28;20028;-56
2021/12/05 14:20:48;;;;;;;56.88;22.10;;;;;;;;;;5041865;28;20033;-56
2021/12/05 14:23:20;;;;;;;48.95;19.13;;;;;;;;;;5049235;28;20537;-53
2021/12/05 14:25:47;;;;;;;46.55;20.27;;;;;;;;;;5042343;28;20032;-56
2021/12/05 14:28:14;;;;;;;48.58;20.10;;;;;;;;;;5043686;28;20029;-57
2021/12/05 14:30:41;;;;;;;50.83;22.13;;;;;;;;;;5043559;28;20028;-57
2021/12/05 14:33:07;;;;;;;45.17;20.17;;;;;;;;;;5050874;28;20128;-57
2021/12/05 14:35:39;;;;;;;51.78;20.15;;;;;;;;;;5051214;28;20059;-56
2021/12/05 14:38:07;;;;;;;49.03;21.08;;;;;;;;;;5046566;28;20029;-56
2021/12/05 14:40:34;;;;;;;51.50;20.92;;;;;;;;;;5050533;28;20032;-56
2021/12/05 14:43:03;;;;;;;47.75;20.20;;;;;;;;;;5049827;28;20025;-58
2021/12/05 14:45:31;;;;;;;46.08;18.75;;;;;;;;;;5051125;28;20032;-57
2021/12/05 14:48:02;;;;;;;54.88;21.75;;;;;;;;;;5048357;28;20033;-56
2021/12/05 14:50:30;;;;;;;57.17;20.67;;;;;;;;;;5048863;28;20494;-57
2021/12/05 14:52:56;;;;;;;49.65;21.63;;;;;;;;;;5047853;28;20029;-57
2021/12/05 14:55:24;;;;;;;58.60;22.17;;;;;;;;;;5048127;28;20063;-57
2021/12/05 14:57:57;;;;;;;61.15;21.70;;;;;;;;;;5046993;28;20037;-56
2021/12/05 15:00:25;;;;;;;57.60;21.67;;;;;;;;;;5050585;28;20113;-57
2021/12/05 15:03:01;;;;;;;53.13;20.92;;;;;;;;;;5047385;28;20017;-56
2021/12/05 15:05:27;;;;;;;48.17;19.50;;;;;;;;;;5046790;28;20028;-55
2021/12/05 15:07:59;;;;;;;55.97;20.52;;;;;;;;;;5046682;28;20121;-56
2021/12/05 15:10:25;;;;;;;50.40;19.77;;;;;;;;;;5048593;28;20036;-56
2021/12/05 15:12:55;;;;;;;52.67;22.70;;;;;;;;;;5046086;28;20388;-56
2021/12/05 15:15:22;;;;;;;53.78;19.95;;;;;;;;;;5046352;28;20039;-54
2021/12/05 15:17:48;;;;;;;45.90;19.13;;;;;;;;;;5047550;28;20108;-55
2021/12/05 15:20:16;;;;;;;43.75;18.80;;;;;;;;;;5048982;28;20119;-57
2021/12/05 15:22:43;;;;;;;43.65;18.60;;;;;;;;;;5049341;28;20418;-56
2021/12/05 15:25:11;;;;;;;46.97;18.73;;;;;;;;;;5046946;28;20511;-54
2021/12/05 15:27:37;;;;;;;50.30;19.30;;;;;;;;;;5048389;28;20032;-56
2021/12/05 15:30:24;;;;;;;44.60;17.67;;;;;;;;;;5048421;28;20499;-57
2021/12/05 15:32:55;;;;;;;46.92;18.60;;;;;;;;;;5049805;28;20357;-57
2021/12/05 15:35:21;;;;;;;50.38;19.73;;;;;;;;;;5048259;28;20037;-55
2021/12/05 15:37:50;;;;;;;48.65;19.50;;;;;;;;;;5047490;28;20055;-53
2021/12/05 15:40:17;;;;;;;48.30;19.40;;;;;;;;;;5050674;28;20107;-56
2021/12/05 15:42:43;;;;;;;47.15;18.45;;;;;;;;;;5047641;28;20021;-54
2021/12/05 15:45:11;;;;;;;49.65;19.13;;;;;;;;;;5047773;28;20041;-57
2021/12/05 15:47:38;;;;;;;48.10;19.77;;;;;;;;;;5050295;28;20090;-57
2021/12/05 15:50:15;;;;;;;40.83;18.67;;;;;;;;;;5049490;28;20032;-56
2021/12/05 15:52:43;;;;;;;46.85;20.02;;;;;;;;;;5045258;28;20064;-55
2021/12/05 15:55:29;;;;;;;45.65;19.55;;;;;;;;;;5048217;28;20032;-55
2021/12/05 15:58:00;;;;;;;47.10;19.52;;;;;;;;;;5048191;28;20173;-56
2021/12/05 16:00:30;;;;;;;48.28;19.02;;;;;;;;;;5046696;28;20032;-57
2021/12/05 16:02:57;;;;;;;52.45;20.45;;;;;;;;;;5046663;28;20381;-57
2021/12/05 16:05:23;;;;;;;54.60;21.58;;;;;;;;;;5048978;28;20121;-56
2021/12/05 16:07:50;;;;;;;45.40;18.75;;;;;;;;;;5048680;28;20108;-54
2021/12/05 16:10:21;;;;;;;48.80;19.15;;;;;;;;;;5046028;28;20232;-57
2021/12/05 16:12:47;;;;;;;48.90;19.83;;;;;;;;;;5044444;28;20040;-57
2021/12/05 16:15:14;;;;;;;42.70;18.50;;;;;;;;;;5045461;28;20033;-53
2021/12/05 16:17:41;;;;;;;42.40;19.30;;;;;;;;;;5045612;28;20098;-55
2021/12/05 16:20:07;;;;;;;48.58;20.50;;;;;;;;;;5044261;28;20037;-56
2021/12/05 16:22:33;;;;;;;49.78;20.67;;;;;;;;;;5047955;28;20029;-57
2021/12/05 16:25:17;;;;;;;49.88;20.85;;;;;;;;;;5049812;28;20416;-55
2021/12/05 16:27:50;;;;;;;50.92;19.20;;;;;;;;;;5047193;28;20082;-57
2021/12/05 16:30:27;;;;;;;51.17;19.85;;;;;;;;;;5049948;28;20059;-56
2021/12/05 16:32:54;;;;;;;51.70;20.63;;;;;;;;;;5048463;28;20471;-55
2021/12/05 16:35:27;;;;;;;54.15;21.52;;;;;;;;;;5051026;28;20029;-55
2021/12/05 16:37:53;;;;;;;;;;;;;;;;;;5048858;28;20497;-55
2021/12/05 16:40:19;;;;;;;51.47;20.58;;;;;;;;;;5048628;28;20004;-55
2021/12/05 16:42:46;;;;;;;51.45;20.83;;;;;;;;;;5044290;28;20053;-57
2021/12/05 16:45:12;;;;;;;55.63;21.95;;;;;;;;;;5044444;28;20052;-56
2021/12/05 16:47:39;;;;;;;52.95;21.15;;;;;;;;;;5049061;28;20030;-58
2021/12/05 16:50:10;;;;;;;58.72;22.42;;;;;;;;;;5048205;28;20120;-57
2021/12/05 16:52:40;;;;;;;58.58;21.20;;;;;;;;;;5044139;28;20132;-58
2021/12/05 16:55:22;;;;;;;54.80;19.85;;;;;;;;;;5045609;28;20047;-56
2021/12/05 16:57:59;;;;;;;52.83;20.02;;;;;;;;;;5044990;28;20041;-57
2021/12/05 17:00:26;;;;;;;48.55;20.83;;;;;;;;;;5039844;28;20029;-57
2021/12/05 17:02:54;;;;;;;64.43;22.77;;;;;;;;;;5046134;28;20100;-56
2021/12/05 17:05:22;;;;;;;52.88;21.65;;;;;;;;;;5047230;28;20116;-56
2021/12/05 17:07:50;;;;;;;53.38;21.20;;;;;;;;;;5051482;28;20036;-57
2021/12/05 17:10:19;;;;;;;54.75;21.92;;;;;;;;;;5053476;28;20040;-57
2021/12/05 17:12:45;;;;;;;54.83;20.52;;;;;;;;;;5051080;28;20033;-57
2021/12/05 17:15:16;;;;;;;61.55;21.73;;;;;;;;;;5047427;28;20096;-57
2021/12/05 17:17:44;;;;;;;55.67;21.65;;;;;;;;;;5045618;28;20033;-57
2021/12/05 17:20:48;;;;;;;53.47;21.60;;;;;;;;;;5046809;28;20032;-54
2021/12/05 17:23:25;;;;;;;56.75;21.30;;;;;;;;;;5049338;28;20036;-57
2021/12/05 17:25:53;;;;;;;56.90;21.45;;;;;;;;;;5045774;28;20044;-54
2021/12/05 17:28:30;;;;;;;48.53;20.02;;;;;;;;;;5049296;28;20040;-57
2021/12/05 17:30:57;;;;;;;60.70;23.98;;;;;;;;;;5043404;28;20056;-55
2021/12/05 17:33:25;;;;;;;58.10;23.40;;;;;;;;;;5049227;28;20029;-57
2021/12/05 17:35:51;;;;;;;53.97;21.73;;;;;;;;;;5046923;28;20064;-57
2021/12/05 17:38:17;;;;;;;54.08;22.15;;;;;;;;;;5050117;28;20032;-57
2021/12/05 17:40:43;;;;;;;55.53;21.80;;;;;;;;;;5054773;28;20029;-57
2021/12/05 17:43:09;;;;;;;60.50;21.48;;;;;;;;;;5048365;28;20540;-57
2021/12/05 17:45:37;;;;;;;56.80;24.10;;;;;;;;;;5049504;28;20075;-54
2021/12/05 17:48:07;;;;;;;56.92;21.58;;;;;;;;;;5055854;28;20029;-56
2021/12/05 17:50:33;;;;;;;60.47;22.98;;;;;;;;;;5054556;28;21696;-57
2021/12/05 17:52:59;;;;;;;61.33;22.80;;;;;;;;;;5050866;28;20116;-57
2021/12/05 17:55:31;;;;;;;58.75;21.27;;;;;;;;;;5051077;28;20156;-57
2021/12/05 17:58:09;;;;;;;59.78;20.92;;;;;;;;;;5051802;28;20040;-56
2021/12/05 18:00:44;;;;;;;60.50;20.88;;;;;;;;;;5050253;28;20436;-57
2021/12/05 18:03:11;;;;;;;56.28;22.33;;;;;;;;;;5048922;28;20052;-57
2021/12/05 18:05:40;;;;;;;53.60;21.02;;;;;;;;;;5037851;28;20509;-56
2021/12/05 18:08:09;;;;;;;57.08;22.45;;;;;;;;;;5050246;28;20029;-53
2021/12/05 18:10:36;;;;;;;58.88;22.83;;;;;;;;;;5050273;28;20082;-52
2021/12/05 18:13:04;;;;;;;59.67;21.80;;;;;;;;;;5044293;28;20041;-56
2021/12/05 18:15:34;;;;;;;56.85;22.25;;;;;;;;;;5042986;28;20029;-55
2021/12/05 18:18:00;;;;;;;60.83;20.98;;;;;;;;;;5053258;28;20055;-56
2021/12/05 18:20:30;;;;;;;60.55;21.60;;;;;;;;;;5051215;28;20032;-57
2021/12/05 18:22:57;;;;;;;62.08;22.08;;;;;;;;;;5047119;28;20082;-55
2021/12/05 18:25:24;;;;;;;64.43;23.13;;;;;;;;;;5051632;28;20448;-54
2021/12/05 18:27:51;;;;;;;61.88;22.65;;;;;;;;;;5052156;28;20091;-56
2021/12/05 18:30:18;;;;;;;63.00;23.10;;;;;;;;;;5049520;28;20423;-55
2021/12/05 18:32:44;;;;;;;65.50;21.40;;;;;;;;;;5043088;28;20089;-51
2021/12/05 18:35:11;;;;;;;59.70;24.02;;;;;;;;;;5052723;28;20029;-56
2021/12/05 18:37:37;;;;;;;57.60;22.55;;;;;;;;;;5049312;28;20152;-57
2021/12/05 18:40:04;;;;;;;70.10;23.05;;;;;;;;;;5052177;28;20032;-57
2021/12/05 18:42:30;;;;;;;57.25;22.10;;;;;;;;;;5054068;28;20033;-55
2021/12/05 18:45:00;;;;;;;59.47;22.20;;;;;;;;;;5052619;28;20087;-57
2021/12/05 18:47:27;;;;;;;49.67;20.30;;;;;;;;;;5049166;28;20097;-56
2021/12/05 18:49:53;;;;;;;62.17;22.13;;;;;;;;;;5050214;28;20037;-55
2021/12/05 18:52:19;;;;;;;54.95;22.58;;;;;;;;;;5053572;28;20059;-56
2021/12/05 18:54:46;;;;;;;58.47;21.80;;;;;;;;;;5051737;28;20043;-52
2021/12/05 18:57:17;;;;;;;63.17;23.75;;;;;;;;;;5051726;28;20033;-56
2021/12/05 18:59:49;;;;;;;58.65;22.30;;;;;;;;;;5043694;28;20044;-57
2021/12/05 19:05:05;;;;;;;59.83;23.00;;;;;;;;;;5051104;28;20115;-56
2021/12/05 19:07:44;;;;;;;55.65;22.15;;;;;;;;;;5052342;28;20078;-55
2021/12/05 19:12:55;;;;;;;61.67;22.52;;;;;;;;;;5051673;28;20039;-55
2021/12/05 19:15:22;;;;;;;63.97;24.35;;;;;;;;;;5041166;28;20111;-56
2021/12/05 19:17:48;;;;;;;74.18;24.55;;;;;;;;;;5046962;28;21026;-57
2021/12/05 19:20:16;;;;;;;73.38;24.48;;;;;;;;;;5045955;28;20028;-56
2021/12/05 19:22:43;;;;;;;76.13;27.00;;;;;;;;;;5052838;28;20029;-56
2021/12/05 19:25:18;;;;;;;73.90;25.65;;;;;;;;;;5041486;28;20021;-57
2021/12/05 19:27:45;;;;;;;73.15;25.42;;;;;;;;;;5041894;28;20026;-56